Time;durP1;ratioP1;P1;durP2;ratioP2;P2;SDS_P1;SDS_P2;PMS_P1;PMS_P2;Temp;Humidity;BMP_temperature;BMP_pressure;BME280_temperature;BME280_humidity;BME280_pressure;Samples;Min_cycle;Max_cycle;Signal;HPM_P1;HPM_P2
2022/03/31 00:00:38;;;;;;;7.40;0.60;;;3.90;1.00;;;;;;5133402;27;20050;-26
2022/03/31 00:03:08;;;;;;;7.55;0.80;;;3.80;1.00;;;;;;5126667;27;20047;-26
2022/03/31 00:05:34;;;;;;;2.47;0.70;;;3.80;1.00;;;;;;5129004;27;20468;-26
2022/03/31 00:08:06;;;;;;;4.90;0.60;;;3.80;1.00;;;;;;5133107;27;20130;-26
2022/03/31 00:10:40;;;;;;;5.18;0.60;;;3.80;1.00;;;;;;5135734;27;20473;-26
2022/03/31 00:13:09;;;;;;;4.72;0.60;;;3.80;16.60;;;;;;5123153;27;20075;-26
2022/03/31 00:15:35;;;;;;;3.83;0.60;;;3.70;22.20;;;;;;5116264;27;20130;-26
2022/03/31 00:18:03;;;;;;;4.85;0.50;;;3.70;19.30;;;;;;5125182;27;20054;-26
2022/03/31 00:20:29;;;;;;;5.85;0.75;;;3.60;38.60;;;;;;5124869;27;20043;-26
2022/03/31 00:22:55;;;;;;;6.13;1.23;;;3.60;58.10;;;;;;5131963;27;20154;-26
2022/03/31 00:25:23;;;;;;;4.27;0.50;;;3.60;99.90;;;;;;5133666;27;20047;-26
2022/03/31 00:27:50;;;;;;;2.60;0.70;;;3.50;99.90;;;;;;5128532;27;20039;-26
2022/03/31 00:30:15;;;;;;;8.73;0.95;;;3.50;99.90;;;;;;5122243;27;20492;-26
2022/03/31 00:32:42;;;;;;;2.47;0.60;;;3.40;99.90;;;;;;5127287;27;20093;-26
2022/03/31 00:35:10;;;;;;;5.60;0.73;;;3.50;99.90;;;;;;5119741;27;20047;-26
2022/03/31 00:37:36;;;;;;;4.80;0.90;;;3.30;99.90;;;;;;5122563;27;20096;-26
2022/03/31 00:40:03;;;;;;;7.80;0.97;;;3.30;99.90;;;;;;5133348;27;20051;-26
2022/03/31 00:42:29;;;;;;;3.60;0.60;;;3.20;99.90;;;;;;5115288;27;20036;-26
2022/03/31 00:44:55;;;;;;;2.33;0.60;;;3.10;99.90;;;;;;5100968;28;20093;-26
2022/03/31 00:47:21;;;;;;;8.23;1.57;;;3.10;99.90;;;;;;5119222;27;20042;-26
2022/03/31 00:49:47;;;;;;;6.33;1.13;;;3.10;99.90;;;;;;5098425;28;20082;-26
2022/03/31 00:52:12;;;;;;;7.85;0.85;;;3.10;99.90;;;;;;5118596;27;20083;-26
2022/03/31 00:54:40;;;;;;;7.57;1.27;;;3.00;99.90;;;;;;5115143;27;20521;-26
2022/03/31 00:57:10;;;;;;;5.83;0.73;;;3.00;99.90;;;;;;5114620;27;20100;-26
2022/03/31 00:59:37;;;;;;;5.87;1.10;;;2.90;99.90;;;;;;5106898;27;20122;-26
2022/03/31 01:02:04;;;;;;;3.87;1.00;;;2.90;99.90;;;;;;5114899;27;20050;-26
2022/03/31 01:04:30;;;;;;;8.73;1.07;;;2.90;99.90;;;;;;5134812;27;20046;-26
2022/03/31 01:06:56;;;;;;;4.53;0.80;;;2.80;99.90;;;;;;5110473;28;20042;-26
2022/03/31 01:09:22;;;;;;;5.90;0.73;;;2.70;99.90;;;;;;5133134;27;20057;-26
2022/03/31 01:11:48;;;;;;;4.37;0.83;;;2.70;99.90;;;;;;5130433;27;20047;-26
2022/03/31 01:14:15;;;;;;;4.13;0.60;;;2.70;99.90;;;;;;5116152;28;20067;-26
2022/03/31 01:16:41;;;;;;;3.87;0.70;;;2.70;99.90;;;;;;5125318;28;20047;-26
2022/03/31 01:19:09;;;;;;;4.90;0.60;;;2.60;99.90;;;;;;5093930;28;20370;-26
2022/03/31 01:21:39;;;;;;;3.88;0.60;;;2.60;99.90;;;;;;5117468;28;20047;-26
2022/03/31 01:24:09;;;;;;;3.87;1.07;;;2.60;99.90;;;;;;5115015;28;20048;-26
2022/03/31 01:26:38;;;;;;;3.92;0.55;;;2.60;99.90;;;;;;5115385;28;20492;-26
2022/03/31 01:29:04;;;;;;;3.23;1.00;;;2.60;99.90;;;;;;5114142;28;20039;-26
2022/03/31 01:31:30;;;;;;;4.20;1.40;;;2.60;99.90;;;;;;5129506;28;20039;-26
2022/03/31 01:33:57;;;;;;;3.47;0.63;;;2.60;99.90;;;;;;5081697;28;20042;-27
2022/03/31 01:36:24;;;;;;;7.53;1.38;;;2.60;99.90;;;;;;5115016;28;20039;-26
2022/03/31 01:38:50;;;;;;;2.80;0.80;;;2.60;99.90;;;;;;5130291;28;20066;-26
2022/03/31 01:41:16;;;;;;;2.80;0.80;;;2.60;99.90;;;;;;5113882;28;20122;-26
2022/03/31 01:43:42;;;;;;;3.43;0.70;;;2.60;99.90;;;;;;5108275;28;20568;-26
2022/03/31 01:46:08;;;;;;;3.23;0.70;;;2.70;1.00;;;;;;5099487;28;20039;-26
2022/03/31 01:48:37;;;;;;;5.10;1.00;;;2.70;99.90;;;;;;5119843;28;20035;-26
2022/03/31 01:51:07;;;;;;;7.10;0.93;;;2.70;99.90;;;;;;5128031;28;20039;-26
2022/03/31 01:53:35;;;;;;;13.77;2.60;;;2.80;99.90;;;;;;5085421;28;20067;-26
2022/03/31 01:56:02;;;;;;;5.20;0.80;;;2.80;99.90;;;;;;5133990;28;20047;-26
2022/03/31 01:58:28;;;;;;;3.93;1.40;;;2.80;99.90;;;;;;5125237;28;20036;-26
2022/03/31 02:00:54;;;;;;;4.32;1.17;;;2.80;1.00;;;;;;5114778;28;20116;-26
2022/03/31 02:03:20;;;;;;;5.20;1.67;;;2.90;1.00;;;;;;5119849;28;20044;-26
2022/03/31 02:05:46;;;;;;;3.47;1.30;;;2.90;1.00;;;;;;5114511;28;20055;-26
2022/03/31 02:08:12;;;;;;;5.00;1.60;;;2.80;1.00;;;;;;5117349;28;20039;-26
2022/03/31 02:10:37;;;;;;;3.97;1.90;;;2.80;1.00;;;;;;5095964;28;20044;-27
2022/03/31 02:13:05;;;;;;;6.00;2.13;;;2.90;1.00;;;;;;5118306;28;20511;-26
2022/03/31 02:15:31;;;;;;;6.40;3.17;;;2.80;1.00;;;;;;5079744;28;20052;-26
2022/03/31 02:17:57;;;;;;;6.57;2.77;;;2.90;99.90;;;;;;5114430;28;20042;-26
2022/03/31 02:20:24;;;;;;;7.37;3.13;;;2.80;99.90;;;;;;5131339;28;20035;-26
2022/03/31 02:22:50;;;;;;;5.80;3.00;;;2.70;99.90;;;;;;5126826;28;20061;-26
2022/03/31 02:25:16;;;;;;;6.17;3.57;;;2.70;99.90;;;;;;5121770;28;20084;-26
2022/03/31 02:27:42;;;;;;;7.33;3.90;;;2.70;99.90;;;;;;5119305;27;20120;-26
2022/03/31 02:30:09;;;;;;;9.13;4.40;;;2.70;99.90;;;;;;5137661;27;20436;-26
2022/03/31 02:32:37;;;;;;;10.00;4.53;;;2.70;1.00;;;;;;5127745;27;20054;-26
2022/03/31 02:35:03;;;;;;;9.47;4.30;;;2.70;99.90;;;;;;5116977;28;20048;-26
2022/03/31 02:37:29;;;;;;;7.13;4.50;;;2.70;99.90;;;;;;5122412;27;20039;-26
2022/03/31 02:39:55;;;;;;;6.95;3.88;;;2.70;99.90;;;;;;5102329;27;20176;-26
2022/03/31 02:42:21;;;;;;;6.40;5.37;;;2.70;1.00;;;;;;5099312;27;20126;-26
2022/03/31 02:44:47;;;;;;;7.38;5.43;;;2.60;1.00;;;;;;5117881;27;20047;-26
2022/03/31 02:47:12;;;;;;;6.10;3.47;;;2.70;1.00;;;;;;5101985;27;20047;-26
2022/03/31 02:49:39;;;;;;;4.50;3.70;;;2.70;1.00;;;;;;5137338;27;20042;-26
2022/03/31 02:52:05;;;;;;;8.47;4.83;;;2.60;77.70;;;;;;5136126;27;20039;-26
2022/03/31 02:57:15;;;;;;;7.40;4.73;;;2.60;80.40;;;;;;5116616;28;20048;-24
2022/03/31 02:59:41;;;;;;;9.70;5.17;;;2.60;99.90;;;;;;5126463;27;20101;-25
2022/03/31 03:02:07;;;;;;;7.20;5.63;;;2.60;99.90;;;;;;5098184;27;20062;-25
2022/03/31 03:04:34;;;;;;;5.13;4.40;;;2.60;99.90;;;;;;5135273;27;20152;-25
2022/03/31 03:07:00;;;;;;;5.97;3.00;;;2.50;99.90;;;;;;5117604;27;20480;-25
2022/03/31 03:09:25;;;;;;;7.17;3.00;;;2.50;99.90;;;;;;5102054;27;20057;-24
2022/03/31 03:11:51;;;;;;;6.63;3.80;;;2.40;99.90;;;;;;5104385;27;20428;-24
2022/03/31 03:14:17;;;;;;;6.00;3.63;;;2.40;99.90;;;;;;5102008;27;20087;-24
2022/03/31 03:16:42;;;;;;;5.13;3.80;;;2.40;99.90;;;;;;5117979;27;20135;-24
2022/03/31 03:19:09;;;;;;;4.07;2.60;;;2.40;1.00;;;;;;5127610;27;20126;-24
2022/03/31 03:21:35;;;;;;;4.40;3.30;;;2.40;1.00;;;;;;5114083;28;20052;-23
2022/03/31 03:24:02;;;;;;;6.60;3.77;;;2.40;1.00;;;;;;5108206;28;20052;-24
2022/03/31 03:26:29;;;;;;;3.40;2.93;;;2.30;1.00;;;;;;5115399;28;20450;-23
2022/03/31 03:28:55;;;;;;;4.53;2.87;;;2.30;1.00;;;;;;5127613;27;20396;-23
2022/03/31 03:31:21;;;;;;;3.73;2.00;;;2.30;1.00;;;;;;5135803;27;20047;-23
2022/03/31 03:33:47;;;;;;;4.97;2.20;;;2.20;1.00;;;;;;5123294;27;20039;-23
2022/03/31 03:36:19;;;;;;;3.10;2.20;;;2.10;1.00;;;;;;5101278;27;20096;-23
2022/03/31 03:38:45;;;;;;;5.67;3.03;;;2.10;27.00;;;;;;5106688;27;20032;-24
2022/03/31 03:41:12;;;;;;;5.93;2.80;;;2.10;51.60;;;;;;5126627;27;20072;-24
2022/03/31 03:43:42;;;;;;;7.13;3.93;;;2.10;77.00;;;;;;5121649;27;20035;-24
2022/03/31 03:46:08;;;;;;;3.37;2.73;;;2.10;99.90;;;;;;5134338;27;20039;-24
2022/03/31 03:48:33;;;;;;;4.20;3.57;;;2.10;99.20;;;;;;5134850;27;20058;-25
2022/03/31 03:50:59;;;;;;;3.30;2.23;;;2.10;99.90;;;;;;5120180;27;20051;-25
2022/03/31 03:53:25;;;;;;;5.27;3.00;;;2.10;99.90;;;;;;5127708;27;20040;-25
2022/03/31 03:55:51;;;;;;;5.27;3.37;;;2.10;99.90;;;;;;5114807;28;20102;-25
2022/03/31 03:58:17;;;;;;;4.23;3.30;;;2.10;99.90;;;;;;5124454;27;20496;-26
2022/03/31 04:00:44;;;;;;;3.37;2.57;;;2.00;99.90;;;;;;5098175;28;20052;-27
2022/03/31 04:03:10;;;;;;;7.40;4.07;;;2.40;99.90;;;;;;5115513;27;20035;-27
2022/03/31 04:05:35;;;;;;;7.17;6.10;;;2.00;99.90;;;;;;5135813;27;20043;-27
2022/03/31 04:08:01;;;;;;;6.10;4.37;;;1.90;99.90;;;;;;5124134;27;20123;-27
2022/03/31 04:10:27;;;;;;;7.37;5.43;;;1.70;99.90;;;;;;5116764;27;20044;-27
2022/03/31 04:12:52;;;;;;;10.57;6.83;;;1.70;99.90;;;;;;5114991;28;20039;-27
2022/03/31 04:15:18;;;;;;;6.87;4.27;;;1.60;99.90;;;;;;5132370;27;20445;-29
2022/03/31 04:17:44;;;;;;;5.97;3.83;;;1.50;99.90;;;;;;5116066;27;20051;-29
2022/03/31 04:20:13;;;;;;;6.33;4.53;;;1.50;99.90;;;;;;5129279;27;20472;-27
2022/03/31 04:22:40;;;;;;;7.97;4.10;;;1.50;99.90;;;;;;5131420;27;20043;-28
2022/03/31 04:25:07;;;;;;;5.10;3.67;;;1.40;99.90;;;;;;5127306;27;20526;-28
2022/03/31 04:27:34;;;;;;;6.03;4.67;;;1.40;99.90;;;;;;5133562;27;20078;-28
2022/03/31 04:30:01;;;;;;;7.80;4.10;;;1.40;99.90;;;;;;5125739;27;20518;-29
2022/03/31 04:32:27;;;;;;;7.87;4.70;;;1.40;99.90;;;;;;5129660;27;20050;-29
2022/03/31 04:34:52;;;;;;;6.73;3.80;;;1.40;99.90;;;;;;5116865;27;20047;-29
2022/03/31 04:37:18;;;;;;;4.73;2.93;;;1.40;99.90;;;;;;5115644;27;20400;-29
2022/03/31 04:39:44;;;;;;;6.47;3.97;;;1.40;99.90;;;;;;5095239;27;20047;-29
2022/03/31 04:42:10;;;;;;;5.60;3.50;;;1.40;99.90;;;;;;5117979;27;20092;-29
2022/03/31 04:44:38;;;;;;;3.67;2.37;;;1.40;99.90;;;;;;5121922;27;20092;-30
2022/03/31 04:47:07;;;;;;;4.30;2.93;;;1.40;99.90;;;;;;5132064;27;20050;-30
2022/03/31 04:49:33;;;;;;;2.57;1.70;;;1.40;99.90;;;;;;5105584;27;20415;-30
2022/03/31 04:51:59;;;;;;;3.47;2.13;;;1.30;99.90;;;;;;5114152;27;20050;-31
2022/03/31 04:54:25;;;;;;;5.13;2.10;;;1.30;99.90;;;;;;5130914;27;20043;-32
2022/03/31 04:56:51;;;;;;;7.03;2.33;;;1.30;99.90;;;;;;5131382;27;20043;-29
2022/03/31 04:59:17;;;;;;;5.67;2.73;;;1.40;99.90;;;;;;5105415;27;20045;-31
2022/03/31 05:01:42;;;;;;;6.37;2.67;;;1.30;99.90;;;;;;5114697;27;20039;-31
2022/03/31 05:04:11;;;;;;;4.13;2.43;;;1.40;99.90;;;;;;5130918;27;20040;-31
2022/03/31 05:06:37;;;;;;;4.83;1.90;;;1.40;99.90;;;;;;5115551;28;20083;-31
2022/03/31 05:09:03;;;;;;;5.60;3.70;;;1.40;99.90;;;;;;5092264;27;20148;-31
2022/03/31 05:11:29;;;;;;;5.03;2.93;;;1.50;99.90;;;;;;5126466;27;20053;-32
2022/03/31 05:13:54;;;;;;;8.20;2.93;;;1.50;99.90;;;;;;5133517;27;20035;-31
2022/03/31 05:16:20;;;;;;;6.03;3.30;;;1.50;99.90;;;;;;5123033;28;20047;-32
2022/03/31 05:18:47;;;;;;;7.87;3.27;;;1.60;99.90;;;;;;5119720;28;20051;-32
2022/03/31 05:21:14;;;;;;;6.43;2.97;;;1.60;99.90;;;;;;5116227;28;20118;-32
2022/03/31 05:23:40;;;;;;;7.40;4.03;;;1.60;99.90;;;;;;5116945;28;20468;-32
2022/03/31 05:26:06;;;;;;;6.20;3.70;;;1.70;99.90;;;;;;5132601;28;20056;-33
2022/03/31 05:28:32;;;;;;;6.70;2.57;;;1.70;99.90;;;;;;5124586;28;20039;-33
2022/03/31 05:30:57;;;;;;;3.97;3.50;;;1.70;99.90;;;;;;5121623;28;20135;-32
2022/03/31 05:33:23;;;;;;;6.70;4.60;;;1.80;99.90;;;;;;5122263;28;20492;-33
2022/03/31 05:35:49;;;;;;;8.67;5.20;;;1.80;99.90;;;;;;5101911;28;20039;-31
2022/03/31 05:38:15;;;;;;;9.13;5.77;;;1.80;99.90;;;;;;5120790;28;20088;-31
2022/03/31 05:40:41;;;;;;;7.47;5.17;;;1.80;99.90;;;;;;5121599;28;20126;-32
2022/03/31 05:43:06;;;;;;;9.53;5.93;;;1.80;99.90;;;;;;5123091;28;20047;-31
2022/03/31 05:45:32;;;;;;;9.60;5.63;;;2.10;99.90;;;;;;5118854;28;20055;-32
2022/03/31 05:47:58;;;;;;;8.90;7.27;;;1.90;99.90;;;;;;5125824;28;20059;-32
2022/03/31 05:50:24;;;;;;;11.17;8.20;;;2.00;99.90;;;;;;5128456;28;20050;-32
2022/03/31 05:52:50;;;;;;;10.27;7.23;;;2.20;99.90;;;;;;5127021;28;20080;-32
2022/03/31 05:55:18;;;;;;;10.83;8.10;;;2.00;99.90;;;;;;5125494;28;20523;-32
2022/03/31 05:57:44;;;;;;;14.20;9.10;;;2.00;99.90;;;;;;5121779;28;20043;-33
2022/03/31 06:00:14;;;;;;;7.03;6.03;;;2.10;99.90;;;;;;5122927;28;20044;-33
2022/03/31 06:02:40;;;;;;;11.07;8.83;;;2.10;99.90;;;;;;5121825;27;20031;-32
2022/03/31 06:05:07;;;;;;;8.50;7.60;;;2.10;99.90;;;;;;5123281;27;20060;-33
2022/03/31 06:07:33;;;;;;;4.70;4.23;;;2.10;99.90;;;;;;5105783;28;20071;-33
2022/03/31 06:09:59;;;;;;;6.53;5.83;;;2.10;99.90;;;;;;5089592;28;20040;-33
2022/03/31 06:12:24;;;;;;;7.37;5.10;;;2.10;99.90;;;;;;5110987;27;20167;-31
2022/03/31 06:14:50;;;;;;;5.80;5.07;;;2.10;99.90;;;;;;5111097;27;20047;-32
2022/03/31 06:17:16;;;;;;;6.40;5.27;;;2.00;99.90;;;;;;5138135;27;20047;-33
2022/03/31 06:19:50;;;;;;;5.93;5.33;;;2.00;99.90;;;;;;5137872;27;20404;-32
2022/03/31 06:22:16;;;;;;;8.10;7.30;;;2.10;99.90;;;;;;5137699;27;20082;-32
2022/03/31 06:24:42;;;;;;;5.70;5.10;;;2.10;99.90;;;;;;5137406;27;20086;-32
2022/03/31 06:27:09;;;;;;;7.27;6.43;;;2.00;99.90;;;;;;5137644;27;20043;-32
2022/03/31 06:29:35;;;;;;;5.70;4.90;;;2.10;99.90;;;;;;5118945;27;20521;-34
2022/03/31 06:32:02;;;;;;;7.80;6.80;;;2.00;99.90;;;;;;5137730;27;20069;-33
2022/03/31 06:34:28;;;;;;;7.10;6.07;;;2.00;99.90;;;;;;5137470;27;20064;-33
2022/03/31 06:36:55;;;;;;;6.83;6.13;;;2.00;99.90;;;;;;5119392;27;20130;-32
2022/03/31 06:39:21;;;;;;;8.10;7.30;;;2.10;99.90;;;;;;5137716;27;20126;-32
2022/03/31 06:41:47;;;;;;;8.00;7.20;;;2.00;99.90;;;;;;5137896;27;20597;-32
2022/03/31 06:44:13;;;;;;;8.17;7.23;;;2.00;99.90;;;;;;5137373;27;20126;-32
2022/03/31 06:46:40;;;;;;;9.70;8.70;;;2.10;99.90;;;;;;5138076;27;20043;-33
2022/03/31 06:49:06;;;;;;;7.90;6.87;;;2.10;99.90;;;;;;5137289;27;20047;-32
2022/03/31 06:51:32;;;;;;;10.10;8.80;;;2.20;99.90;;;;;;5137235;27;20047;-32
2022/03/31 06:53:59;;;;;;;9.63;8.17;;;2.20;99.90;;;;;;5136804;27;20081;-32
2022/03/31 06:56:29;;;;;;;6.77;5.13;;;2.20;99.90;;;;;;5119045;27;20471;-32
2022/03/31 06:58:56;;;;;;;7.43;6.27;;;2.20;99.90;;;;;;5101877;27;20138;-32
2022/03/31 07:01:22;;;;;;;8.37;7.43;;;2.20;99.90;;;;;;5137021;27;20049;-33
2022/03/31 07:03:48;;;;;;;7.60;6.33;;;2.20;99.90;;;;;;5136989;27;20388;-31
2022/03/31 07:06:14;;;;;;;6.33;5.03;;;2.20;99.90;;;;;;5136874;27;20130;-31
2022/03/31 07:08:40;;;;;;;6.37;5.40;;;2.20;99.90;;;;;;5136935;27;20043;-32
2022/03/31 07:11:07;;;;;;;8.97;7.93;;;2.20;99.90;;;;;;5102189;27;20043;-32
2022/03/31 07:13:34;;;;;;;8.63;7.73;;;2.20;99.90;;;;;;5100693;27;20126;-32
2022/03/31 07:16:01;;;;;;;10.20;8.83;;;2.20;99.90;;;;;;5136687;27;20084;-33
2022/03/31 07:18:27;;;;;;;7.27;6.07;;;2.30;99.90;;;;;;5136606;27;20043;-32
2022/03/31 07:20:52;;;;;;;9.37;8.37;;;2.30;99.90;;;;;;5136614;27;20083;-33
2022/03/31 07:23:23;;;;;;;10.23;8.63;;;2.50;99.90;;;;;;5118908;27;20043;-33
2022/03/31 07:25:50;;;;;;;10.47;8.73;;;2.30;99.90;;;;;;5136547;27;20047;-33
2022/03/31 07:28:16;;;;;;;11.83;9.77;;;2.20;99.90;;;;;;5136463;27;20043;-32
2022/03/31 07:30:42;;;;;;;10.63;9.47;;;2.30;99.90;;;;;;5136248;27;20057;-33
2022/03/31 07:33:09;;;;;;;11.60;10.40;;;2.30;99.90;;;;;;5136275;27;20039;-33
2022/03/31 07:35:39;;;;;;;13.03;10.90;;;2.30;99.90;;;;;;5136388;27;20391;-32
2022/03/31 07:38:07;;;;;;;7.60;6.83;;;2.30;99.90;;;;;;5118247;27;20058;-32
2022/03/31 07:40:34;;;;;;;10.87;9.33;;;2.30;99.90;;;;;;5100990;27;20047;-32
2022/03/31 07:43:01;;;;;;;11.73;10.53;;;2.30;99.90;;;;;;5136211;27;20035;-33
2022/03/31 07:45:28;;;;;;;10.83;8.93;;;2.20;99.90;;;;;;5136103;27;20047;-33
2022/03/31 07:47:55;;;;;;;10.93;9.63;;;2.20;99.90;;;;;;5136615;27;20468;-33
2022/03/31 07:50:21;;;;;;;10.63;9.53;;;2.30;99.90;;;;;;5136065;27;20403;-33
2022/03/31 07:52:49;;;;;;;12.53;9.60;;;2.30;99.90;;;;;;5136448;27;20118;-32
2022/03/31 07:55:16;;;;;;;11.57;10.03;;;2.40;99.90;;;;;;5136254;27;20058;-32
2022/03/31 07:57:43;;;;;;;12.10;9.53;;;2.40;99.90;;;;;;5135584;27;20373;-33
2022/03/31 08:00:11;;;;;;;11.40;9.50;;;2.50;99.90;;;;;;5135891;27;20178;-32
2022/03/31 08:02:42;;;;;;;10.43;9.03;;;2.40;99.90;;;;;;5117645;27;20503;-33
2022/03/31 08:05:09;;;;;;;9.83;8.57;;;2.40;99.90;;;;;;5136244;27;20047;-32
2022/03/31 08:07:38;;;;;;;12.53;11.07;;;2.30;99.90;;;;;;5136280;27;20119;-32
2022/03/31 08:10:05;;;;;;;10.33;9.20;;;2.30;99.90;;;;;;5135596;27;20054;-32
2022/03/31 08:12:34;;;;;;;11.23;10.00;;;2.20;99.90;;;;;;5117756;27;20114;-32
2022/03/31 08:15:00;;;;;;;11.33;8.57;;;2.30;99.90;;;;;;5117287;27;20129;-32
2022/03/31 08:17:26;;;;;;;11.23;9.50;;;2.20;99.90;;;;;;5135475;27;20146;-32
2022/03/31 08:19:51;;;;;;;10.53;8.53;;;2.20;99.90;;;;;;5135431;27;20563;-33
2022/03/31 08:22:17;;;;;;;10.80;8.87;;;2.20;99.90;;;;;;5135447;27;20078;-32
2022/03/31 08:24:44;;;;;;;6.57;4.97;;;2.20;99.90;;;;;;5100347;27;20043;-32
2022/03/31 08:27:10;;;;;;;13.43;8.93;;;2.10;99.90;;;;;;5135385;27;20058;-32
2022/03/31 08:29:37;;;;;;;9.70;8.10;;;2.10;99.90;;;;;;5117040;27;20526;-32
2022/03/31 08:32:04;;;;;;;9.00;8.10;;;2.10;99.90;;;;;;5135717;27;20047;-32
2022/03/31 08:34:30;;;;;;;7.37;5.93;;;2.10;99.90;;;;;;5135169;27;20057;-32
2022/03/31 08:36:56;;;;;;;7.97;6.40;;;2.20;99.90;;;;;;5116815;27;20050;-32
2022/03/31 08:39:22;;;;;;;6.20;5.43;;;2.10;99.90;;;;;;5135118;27;20043;-31
2022/03/31 08:41:47;;;;;;;9.67;8.53;;;2.10;99.90;;;;;;5100244;27;20047;-32
2022/03/31 08:44:18;;;;;;;9.03;8.00;;;2.10;99.90;;;;;;5135084;27;20053;-32
2022/03/31 08:46:44;;;;;;;9.63;7.50;;;2.10;99.90;;;;;;5135047;27;20047;-32
2022/03/31 08:49:11;;;;;;;11.97;9.77;;;2.00;99.90;;;;;;5134963;27;20155;-33
2022/03/31 08:51:37;;;;;;;13.00;10.00;;;2.10;99.90;;;;;;5116880;27;20053;-31
2022/03/31 08:54:03;;;;;;;10.63;8.30;;;2.00;99.90;;;;;;5099401;27;20051;-31
2022/03/31 08:56:30;;;;;;;11.33;8.63;;;2.00;99.90;;;;;;5134867;27;20429;-31
2022/03/31 08:58:55;;;;;;;11.67;9.27;;;1.90;99.90;;;;;;5134876;27;20564;-32
2022/03/31 09:01:21;;;;;;;12.50;7.20;;;1.90;99.90;;;;;;5117378;27;20130;-31
2022/03/31 09:03:47;;;;;;;10.17;7.57;;;1.80;99.90;;;;;;5134697;27;20043;-32
2022/03/31 09:06:28;;;;;;;10.37;8.53;;;1.80;99.90;;;;;;5134669;27;20145;-31
2022/03/31 09:08:59;;;;;;;9.63;8.47;;;1.80;99.90;;;;;;5135254;27;20055;-32
2022/03/31 09:11:33;;;;;;;9.57;7.83;;;1.80;99.90;;;;;;5116859;27;20452;-31
2022/03/31 09:14:03;;;;;;;8.20;6.93;;;1.80;99.90;;;;;;5134618;27;20054;-31
2022/03/31 09:16:38;;;;;;;6.77;5.63;;;1.80;99.90;;;;;;5135273;27;20046;-32
2022/03/31 09:19:09;;;;;;;6.90;5.40;;;1.80;99.90;;;;;;5100281;28;20380;-32
2022/03/31 09:21:57;;;;;;;8.33;6.90;;;1.70;99.90;;;;;;5099490;28;20496;-33
2022/03/31 09:24:26;;;;;;;9.20;6.63;;;1.60;99.90;;;;;;5134183;28;20545;-32
2022/03/31 09:26:52;;;;;;;7.90;6.47;;;1.60;99.90;;;;;;5116654;28;20031;-32
2022/03/31 09:29:25;;;;;;;4.97;3.83;;;1.60;99.90;;;;;;5134745;28;20046;-32
2022/03/31 09:31:54;;;;;;;5.85;5.18;;;1.40;99.90;;;;;;5116942;28;20096;-32
2022/03/31 09:34:20;;;;;;;9.10;7.47;;;1.40;99.90;;;;;;5134290;28;20050;-32
2022/03/31 09:36:51;;;;;;;9.30;7.13;;;1.40;99.90;;;;;;5135382;27;20134;-33
2022/03/31 09:39:19;;;;;;;9.20;7.47;;;1.40;99.90;;;;;;5138626;27;20041;-32
2022/03/31 09:41:50;;;;;;;9.80;6.43;;;1.40;99.90;;;;;;5138543;27;20047;-32
2022/03/31 09:44:17;;;;;;;9.10;7.13;;;1.40;99.90;;;;;;5138598;27;20086;-32
2022/03/31 09:46:45;;;;;;;8.63;6.90;;;1.30;99.90;;;;;;5138481;27;20047;-31
2022/03/31 09:49:27;;;;;;;9.37;7.50;;;1.20;99.90;;;;;;5138421;27;20488;-32
2022/03/31 09:51:56;;;;;;;6.57;5.43;;;1.10;99.90;;;;;;5120855;27;20399;-32
2022/03/31 09:54:25;;;;;;;8.60;6.87;;;1.00;99.90;;;;;;5138327;27;20087;-32
2022/03/31 09:56:51;;;;;;;8.60;6.60;;;0.80;99.90;;;;;;5119909;27;20051;-32
2022/03/31 09:59:18;;;;;;;8.93;7.23;;;0.70;99.90;;;;;;5119827;27;20511;-32
2022/03/31 10:01:45;;;;;;;8.57;6.93;;;0.60;99.90;;;;;;5138198;27;20535;-33
2022/03/31 10:04:12;;;;;;;8.77;4.83;;;0.50;99.90;;;;;;5119983;27;20047;-34
2022/03/31 10:06:41;;;;;;;9.90;6.80;;;0.40;99.90;;;;;;5138070;27;20049;-34
2022/03/31 10:09:09;;;;;;;9.10;6.43;;;0.30;99.90;;;;;;5103678;27;20486;-39
2022/03/31 10:11:38;;;;;;;8.53;6.47;;;0.30;99.90;;;;;;5119601;27;20051;-42
2022/03/31 10:14:27;;;;;;;15.00;9.73;;;0.30;99.90;;;;;;5137821;27;20089;-43
2022/03/31 10:17:06;;;;;;;10.60;8.20;;;0.50;99.90;;;;;;5137943;27;20043;-43
2022/03/31 10:19:40;;;;;;;10.33;7.27;;;0.20;99.90;;;;;;5138271;27;20047;-43
2022/03/31 10:25:05;;;;;;;;;;;0.20;99.90;;;;;;5138461;27;20509;-36
2022/03/31 10:27:33;;;;;;;14.87;8.80;;;0.20;99.90;;;;;;5137626;27;19923;-32
2022/03/31 10:30:17;;;;;;;9.87;7.10;;;0.20;99.90;;;;;;5138175;27;20098;-31
2022/03/31 10:33:10;;;;;;;14.63;9.20;;;0.20;99.90;;;;;;5138031;27;20051;-31
2022/03/31 10:35:41;;;;;;;10.37;6.93;;;0.20;99.90;;;;;;5115463;27;20088;-31
2022/03/31 10:38:21;;;;;;;10.70;6.13;;;0.20;99.90;;;;;;5137503;27;20051;-29
2022/03/31 10:40:51;;;;;;;10.93;7.20;;;0.20;99.90;;;;;;5086410;27;20043;-30
2022/03/31 10:43:31;;;;;;;16.47;9.00;;;0.20;99.90;;;;;;5119336;27;20495;-29
2022/03/31 10:45:59;;;;;;;12.10;8.23;;;0.20;99.90;;;;;;5137660;27;20381;-30
2022/03/31 10:48:27;;;;;;;10.70;7.87;;;0.20;99.90;;;;;;5136823;27;20058;-32
2022/03/31 10:51:08;;;;;;;9.63;7.00;;;0.20;99.90;;;;;;5137374;27;20589;-29
2022/03/31 10:53:39;;;;;;;13.80;9.90;;;0.20;99.90;;;;;;5136930;27;20043;-29
2022/03/31 10:56:15;;;;;;;11.53;7.67;;;0.30;99.90;;;;;;5138024;27;20039;-33
2022/03/31 10:58:42;;;;;;;6.77;4.93;;;0.30;99.90;;;;;;5137121;27;20047;-27
2022/03/31 11:01:10;;;;;;;18.00;8.77;;;0.30;99.90;;;;;;5137016;27;20043;-27
2022/03/31 11:03:36;;;;;;;8.13;6.07;;;0.30;99.90;;;;;;5137021;27;20042;-30
2022/03/31 11:06:07;;;;;;;9.83;5.07;;;0.30;99.90;;;;;;5101797;27;20384;-32
2022/03/31 11:08:53;;;;;;;6.67;5.47;;;0.30;99.90;;;;;;5136885;27;20598;-31
2022/03/31 11:11:29;;;;;;;8.30;5.80;;;0.30;99.90;;;;;;5136886;27;20051;-32
2022/03/31 11:13:59;;;;;;;13.83;8.57;;;0.30;99.90;;;;;;5119267;27;20050;-33
2022/03/31 11:16:38;;;;;;;9.17;6.40;;;0.40;99.90;;;;;;5118349;27;20047;-29
2022/03/31 11:19:04;;;;;;;7.73;4.23;;;0.40;99.90;;;;;;5118473;27;20047;-35
2022/03/31 11:21:35;;;;;;;9.67;7.03;;;0.40;99.90;;;;;;5101059;27;20047;-38
2022/03/31 11:24:01;;;;;;;6.53;5.03;;;0.80;99.90;;;;;;5136669;27;20403;-43
2022/03/31 11:26:27;;;;;;;7.80;5.93;;;0.50;99.90;;;;;;5136595;27;20048;-43
2022/03/31 11:28:54;;;;;;;6.80;4.97;;;0.40;99.90;;;;;;5118918;27;20039;-42
2022/03/31 11:31:20;;;;;;;9.63;6.87;;;0.40;99.90;;;;;;5118249;27;20050;-42
2022/03/31 11:33:47;;;;;;;10.00;4.93;;;0.30;99.90;;;;;;5117952;27;20438;-41
2022/03/31 11:36:12;;;;;;;11.63;6.13;;;0.30;99.90;;;;;;5137455;27;20099;-33
2022/03/31 11:38:39;;;;;;;6.43;4.57;;;0.30;99.90;;;;;;5118071;27;20434;-31
2022/03/31 11:41:05;;;;;;;7.53;5.43;;;0.30;99.90;;;;;;5118450;27;20047;-30
2022/03/31 11:43:32;;;;;;;10.07;6.90;;;0.30;99.90;;;;;;5117954;27;20100;-31
2022/03/31 11:45:58;;;;;;;6.63;5.07;;;0.30;99.90;;;;;;5118064;27;20130;-31
2022/03/31 11:48:40;;;;;;;6.13;3.63;;;0.30;99.90;;;;;;5117865;27;20051;-31
2022/03/31 11:51:07;;;;;;;7.33;4.47;;;0.30;99.90;;;;;;5136752;27;20090;-31
2022/03/31 11:53:44;;;;;;;6.90;5.30;;;0.30;99.90;;;;;;5117404;27;20396;-30
2022/03/31 11:56:17;;;;;;;6.73;5.23;;;0.20;99.90;;;;;;5136167;27;20070;-32
2022/03/31 11:58:47;;;;;;;6.80;4.67;;;0.20;99.90;;;;;;5136004;27;20047;-34
2022/03/31 12:01:13;;;;;;;5.47;3.83;;;0.10;99.90;;;;;;5117436;27;20090;-32
2022/03/31 12:03:39;;;;;;;7.53;5.93;;;0.10;99.90;;;;;;5135869;27;20075;-32
2022/03/31 12:06:06;;;;;;;12.27;7.07;;;0.10;99.90;;;;;;5117510;27;20082;-32
2022/03/31 12:08:33;;;;;;;28.70;6.60;;;0.10;99.90;;;;;;5100629;27;20082;-32
2022/03/31 12:10:59;;;;;;;9.33;6.20;;;0.10;99.90;;;;;;5135472;27;20411;-30
2022/03/31 12:13:27;;;;;;;10.03;8.20;;;0.10;99.90;;;;;;5135536;27;20047;-31
2022/03/31 12:16:07;;;;;;;10.00;6.10;;;0.10;99.90;;;;;;5117199;27;20184;-30
2022/03/31 12:18:35;;;;;;;9.27;6.83;;;0.10;99.90;;;;;;5117180;27;20085;-30
2022/03/31 12:21:07;;;;;;;12.23;9.07;;;0.00;99.90;;;;;;5135454;27;20054;-29
2022/03/31 12:23:43;;;;;;;9.27;6.37;;;0.00;99.90;;;;;;5117844;27;20047;-28
2022/03/31 12:26:15;;;;;;;10.87;5.97;;;0.00;99.90;;;;;;5135499;27;20123;-28
2022/03/31 12:28:42;;;;;;;11.47;6.67;;;0.00;99.90;;;;;;5135393;27;20051;-28
2022/03/31 12:31:27;;;;;;;9.57;5.57;;;0.10;99.90;;;;;;5135236;27;20047;-29
2022/03/31 12:33:53;;;;;;;5.83;4.73;;;0.10;99.90;;;;;;5136031;27;20131;-29
2022/03/31 12:36:34;;;;;;;9.47;5.07;;;0.10;99.90;;;;;;5135834;27;20047;-28
2022/03/31 12:39:04;;;;;;;9.87;4.80;;;0.40;99.90;;;;;;5135790;27;20051;-29
2022/03/31 12:41:36;;;;;;;9.17;6.07;;;0.10;99.90;;;;;;5117377;27;20499;-29
2022/03/31 12:44:17;;;;;;;11.03;8.00;;;0.10;99.90;;;;;;5135134;27;20039;-30
2022/03/31 12:46:44;;;;;;;12.10;6.50;;;0.10;99.90;;;;;;5117570;27;20049;-30
2022/03/31 12:49:15;;;;;;;4.73;4.00;;;0.10;99.90;;;;;;5135061;27;20058;-28
2022/03/31 12:51:47;;;;;;;7.57;5.77;;;0.10;99.90;;;;;;5134905;27;20047;-28
2022/03/31 12:54:22;;;;;;;5.90;3.60;;;0.10;99.90;;;;;;5134788;27;20058;-29
2022/03/31 12:56:49;;;;;;;7.50;4.80;;;0.10;99.90;;;;;;5134897;27;20115;-30
2022/03/31 12:59:33;;;;;;;7.93;4.53;;;0.10;99.90;;;;;;5134483;27;20391;-30
2022/03/31 13:02:06;;;;;;;7.03;4.93;;;0.10;99.90;;;;;;5135095;27;20414;-31
2022/03/31 13:04:34;;;;;;;8.27;6.07;;;0.10;99.90;;;;;;5134859;27;20039;-30